Bol'Shaja Murta, Russia
Current Conditions -  °F | °C
As of 8:30 AM on Saturday 25 Oct 2014 (Local Time) from UNKL Reporting Station
Overcast Overcast  
Wind Chill:   Ceiling: 8300
Heat Index: 19°   Visibility: 6mi
Dew Point: 16°   Wind: 9mph
Humidity: 86%   Direction: 120°ESE
Pressure: 30.15"   Gusts: NA
Location:  56.9°N, 93.13°E
Report Text: UNKL 250130Z 12004MPS 9999 SCT033CB OVC083 M07/M09 Q1021 NOSIGRMK QFE740 11////50
Loading
Personal Weather Stations






























Interactive Weather Map
Tropical Storm Tracking
New forecast layout! Learn more

10-Day Weather Forecast

Advertisements
Track Severe Weather on mobile